Home > Products > Valid Products > TAF

000
FTUS42 KFFC 180300 AAB
TAFATL
TAF AMD
KATL 180333Z 1804/1906 02004KT P6SM SCT250
     FM181500 04005KT P6SM FEW040
     FM182000 31006KT P6SM SCT050
     FM190100 34006KT P6SM SCT200=



000
FTUS42 KFFC 180100 AAA
TAFATL
TAF AMD
KATL 180130Z 1802/1906 34006KT P6SM SCT250
     FM181500 04005KT P6SM FEW040
     FM182000 31006KT P6SM SCT050
     FM190100 34006KT P6SM SCT200=



000
FTUS42 KFFC 172300
TAFFTY
TAF
KFTY 172336Z 1800/1824 32004KT P6SM SCT250
     FM180200 34002KT P6SM SCT250
     FM181500 04004KT P6SM FEW040
     FM182000 31005KT P6SM SCT050=



000
FTUS42 KFFC 172300
TAFATL
TAF
KATL 172336Z 1800/1906 33010KT P6SM SCT250
     FM180200 34006KT P6SM SCT250
     FM181500 04005KT P6SM FEW040
     FM182000 31006KT P6SM SCT050
     FM190100 34006KT P6SM SCT200=



000
FTUS42 KFFC 172300
TAFAHN
TAF
KAHN 172336Z 1800/1824 30004KT P6SM SCT060
     FM180200 34002KT P6SM SCT250
     FM180900 VRB03KT 6SM BR SCT020
      TEMPO 1809/1813 4SM BR OVC010
     FM181500 06004KT P6SM SCT030
     FM182000 09005KT P6SM SCT050=



000
FTUS42 KFFC 172300
TAFCSG
TAF
KCSG 172336Z 1800/1824 34004KT P6SM FEW250
     FM181500 03004KT P6SM FEW040
     FM182000 03005KT P6SM SCT050=



000
FTUS42 KFFC 172300
TAFRYY
TAF
KRYY 172336Z 1800/1824 32004KT P6SM SCT250
     FM180200 34002KT P6SM SCT250
     FM181500 04004KT P6SM FEW040
     FM182000 31005KT P6SM SCT050
      AMD NOT SKED 1804/1812=



000
FTUS42 KFFC 172300
TAFMCN
TAF
KMCN 172336Z 1800/1824 34004KT P6SM FEW250
     FM181500 03004KT P6SM FEW040
     FM182000 03005KT P6SM SCT050=



000
FTUS42 KFFC 172300
TAFPDK
TAF
KPDK 172336Z 1800/1824 32004KT P6SM SCT250
     FM180200 34002KT P6SM SCT250
     FM181500 04004KT P6SM FEW040
     FM182000 31005KT P6SM SCT050=



000
FTUS42 KFFC 172100 AAB
TAFATL
TAF AMD
KATL 172152Z 1722/1824 32009KT P6SM FEW050 BKN200
     FM180000 33006KT P6SM FEW250
     FM181500 04005KT P6SM FEW040
     FM182000 31006KT P6SM FEW050
     FM182300 34006KT P6SM SCT200=



000
FTUS42 KFFC 171900 AAA
TAFATL
TAF AMD
KATL 171948Z 1720/1824 30009KT P6SM FEW050
     FM180000 33006KT P6SM FEW250
     FM181500 04005KT P6SM FEW040
     FM182000 31006KT P6SM FEW050
     FM182300 34006KT P6SM SCT200=



000
FTUS42 KFFC 171700
TAFMCN
TAF
KMCN 171727Z 1718/1818 29006KT P6SM SCT035
     FM180000 34004KT P6SM FEW250
     FM181500 03004KT P6SM FEW040=



000
FTUS42 KFFC 171700
TAFAHN
TAF
KAHN 171727Z 1718/1818 00000KT P6SM SCT030 BKN045
     FM180200 07003KT P6SM FEW250
     FM180900 05004KT P6SM SCT035
     FM181500 09005KT P6SM FEW040=



000
FTUS42 KFFC 171700
TAFRYY
TAF
KRYY 171727Z 1718/1818 33005KT P6SM SKC
     FM180000 00000KT P6SM FEW250
     FM181500 02003KT P6SM SCT040
     FM181700 34004KT P6SM FEW045=



000
FTUS42 KFFC 171700
TAFPDK
TAF
KPDK 171727Z 1718/1818 30009KT P6SM SKC
     FM180000 33004KT P6SM FEW250
     FM181400 02003KT P6SM SCT250
     FM181500 02003KT P6SM SCT040
     FM181700 34004KT P6SM FEW045=



000
FTUS42 KFFC 171700
TAFFTY
TAF
KFTY 171727Z 1718/1818 30010KT P6SM SKC
     FM180000 33003KT P6SM FEW250
     FM181500 02003KT P6SM SCT040=



000
FTUS42 KFFC 171700
TAFATL
TAF
KATL 171727Z 1718/1824 29009KT P6SM FEW040
     FM180000 33006KT P6SM FEW250
     FM181500 04005KT P6SM FEW040
     FM182000 31006KT P6SM FEW050
     FM182300 34006KT P6SM SCT200=



000
FTUS42 KFFC 171700
TAFCSG
TAF
KCSG 171727Z 1718/1818 00000KT P6SM SCT035
     FM180000 33005KT P6SM FEW250
     FM181500 03003KT P6SM SCT040=



000
FTUS42 KFFC 171600 AAB
TAFATL
TAF AMD
KATL 171604Z 1716/1818 31008KT P6SM FEW030
     FM171800 32010KT P6SM SCT045
     FM180100 33005KT P6SM SKC
     FM181500 35007KT P6SM FEW040=



000
FTUS42 KFFC 171300 AAA
TAFATL
TAF AMD
KATL 171339Z 1714/1818 33009KT P6SM FEW025
     FM171800 32010KT P6SM SCT045
     FM180100 33005KT P6SM SKC
     FM181500 35007KT P6SM FEW040=



000
FTUS42 KFFC 171100
TAFMCN
TAF
KMCN 171127Z 1712/1812 28003KT P6SM FEW040
     FM171600 32008KT P6SM SCT045
     FM180100 33003KT P6SM SKC=



000
FTUS42 KFFC 171100
TAFCSG
TAF
KCSG 171127Z 1712/1812 35003KT P6SM FEW040
     FM171600 34008KT P6SM SCT045
     FM180100 33003KT P6SM SKC=



000
FTUS42 KFFC 171100
TAFFTY
TAF
KFTY 171127Z 1712/1812 35005KT P6SM FEW030
     FM171600 33008KT P6SM SCT040
     FM180100 33003KT P6SM SKC=



000
FTUS42 KFFC 171100
TAFRYY
TAF
KRYY 171127Z 1712/1812 33005KT P6SM SCT035
     FM171600 32008KT P6SM SCT040
     FM180100 33003KT P6SM SKC=



000
FTUS42 KFFC 171100
TAFAHN
TAF
KAHN 171127Z 1712/1812 32004KT P6SM SCT040
     FM171600 31008KT P6SM SCT045
     FM180100 30003KT P6SM SKC=



000
FTUS42 KFFC 171100
TAFPDK
TAF
KPDK 171127Z 1712/1812 33005KT P6SM FEW030
     FM171600 32008KT P6SM SCT040
     FM180100 33003KT P6SM SKC=



000
FTUS42 KFFC 171100
TAFATL
TAF
KATL 171127Z 1712/1818 33008KT P6SM FEW025
     FM171500 33009KT P6SM SCT030
     FM171800 32010KT P6SM SCT045
     FM180100 33005KT P6SM SKC
     FM181500 35007KT P6SM FEW040=



000
FTUS42 KFFC 170900 AAA
TAFMCN
TAF AMD
KMCN 170936Z 1710/1806 30003KT 6SM BR FEW040
     FM171600 33008KT P6SM SCT045
     FM180100 32003KT P6SM SKC=



000
FTUS42 KFFC 170900 AAA
TAFCSG
TAF AMD
KCSG 170936Z 1710/1806 30003KT P6SM FEW040
     FM171600 33008KT P6SM SCT045
     FM180100 32003KT P6SM SKC=



000
FTUS42 KFFC 170900 AAA
TAFRYY
TAF AMD
KRYY 170935Z 1710/1806 34005KT 6SM BR FEW040
     FM171600 32008KT P6SM SCT045
     FM180100 33003KT P6SM SKC
      AMD NOT SKED TIL 171200=



000
FTUS42 KFFC 170900 AAA
TAFAHN
TAF AMD
KAHN 170935Z 1710/1806 33004KT P6SM SCT090
     FM171600 32008KT P6SM SCT040
     FM180100 30003KT P6SM SKC=



000
FTUS42 KFFC 170900 AAA
TAFFTY
TAF AMD
KFTY 170934Z 1710/1806 35005KT P6SM FEW040
     FM171600 32008KT P6SM SCT045
     FM180100 33003KT P6SM SKC=



000
FTUS42 KFFC 170900 AAA
TAFPDK
TAF AMD
KPDK 170934Z 1710/1806 34005KT P6SM FEW040
     FM171600 32008KT P6SM SCT045
     FM180100 33003KT P6SM SKC=



000
FTUS42 KFFC 170900 AAB
TAFATL
TAF AMD
KATL 170933Z 1710/1812 34007KT P6SM FEW040
     FM171600 32010KT P6SM SCT045
     FM180100 33005KT P6SM SKC=



000
FTUS42 KFFC 170700 AAA
TAFATL
TAF AMD
KATL 170733Z 1708/1812 32005KT P6SM FEW040
     FM170900 32005KT 6SM BR FEW040
     FM171600 30009KT P6SM SCT045
     FM180100 33005KT P6SM SKC=



000
FTUS42 KFFC 170500
TAFFTY
TAF
KFTY 170535Z 1706/1806 31003KT P6SM FEW040
     FM170900 32003KT 5SM BR FEW040
     FM171600 30007KT P6SM SCT045
     FM180100 33003KT P6SM SKC=



000
FTUS42 KFFC 170500
TAFMCN
TAF
KMCN 170535Z 1706/1806 28003KT P6SM FEW040
     FM170900 31003KT 5SM BR FEW040
     FM171600 33007KT P6SM SCT045
     FM180100 32003KT P6SM SKC=



000
FTUS42 KFFC 170500
TAFPDK
TAF
KPDK 170535Z 1706/1806 31003KT P6SM FEW040
     FM170900 32003KT 5SM BR FEW040
     FM171600 30007KT P6SM SCT045
     FM180100 33003KT P6SM SKC=



000
FTUS42 KFFC 170500
TAFAHN
TAF
KAHN 170535Z 1706/1806 31003KT P6SM FEW250
     FM170900 31003KT 5SM BR FEW250
     FM171600 30007KT P6SM SCT040
     FM180100 30003KT P6SM SKC=



000
FTUS42 KFFC 170500
TAFATL
TAF
KATL 170535Z 1706/1812 31005KT P6SM SCT040
     FM170900 32005KT 6SM BR FEW040
     FM171600 30009KT P6SM SCT045
     FM180100 33005KT P6SM SKC=



000
FTUS42 KFFC 170500
TAFCSG
TAF
KCSG 170535Z 1706/1806 29003KT P6SM SCT110
     FM170900 31003KT 5SM BR FEW040
     FM171600 33007KT P6SM SCT045
     FM180100 32003KT P6SM SKC=



000
FTUS42 KFFC 170500
TAFRYY
TAF
KRYY 170535Z 1706/1806 31003KT P6SM FEW040
     FM170900 32003KT 5SM BR FEW040
     FM171600 30007KT P6SM SCT045
     FM180100 33003KT P6SM SKC
      AMD NOT SKED TIL 171200=



000
FTUS42 KFFC 170300 AAB
TAFATL
TAF AMD
KATL 170350Z 1704/1806 33006KT P6SM FEW250
     FM170900 34006KT 6SM BR FEW250
     FM171500 33007KT P6SM FEW040 FEW250=



000
FTUS42 KFFC 170100 AAA
TAFATL
TAF AMD
KATL 170135Z 1702/1806 33006KT P6SM FEW250
     FM170900 34006KT 6SM BR FEW250
     FM171500 33007KT P6SM FEW040 FEW250=



000
FTUS42 KFFC 162300
TAFAHN
TAF
KAHN 162328Z 1700/1724 32005KT P6SM SCT250
     FM170900 32003KT 3SM BR FEW250
     FM171500 33005KT P6SM FEW040 FEW250=



000
FTUS42 KFFC 162300
TAFFTY
TAF
KFTY 162328Z 1700/1724 33005KT P6SM SCT250
     FM170900 34003KT 5SM BR FEW250
     FM171500 33005KT P6SM FEW040 FEW250=



000
FTUS42 KFFC 162300
TAFATL
TAF
KATL 162328Z 1700/1806 33007KT P6SM SCT250
     FM170900 34006KT 6SM BR FEW250
     FM171500 33007KT P6SM FEW040 FEW250=



000
FTUS42 KFFC 162300
TAFMCN
TAF
KMCN 162328Z 1700/1724 32005KT P6SM SCT250
     FM170700 33003KT 4SM BR FEW250
     FM171500 33005KT P6SM FEW040 FEW250=



000
FTUS42 KFFC 162300
TAFCSG
TAF
KCSG 162328Z 1700/1724 32005KT P6SM SCT250
     FM170700 33003KT 6SM BR FEW250
     FM171500 34005KT P6SM FEW040 FEW250=



000
FTUS42 KFFC 162300
TAFPDK
TAF
KPDK 162328Z 1700/1724 33005KT P6SM SCT250
     FM170900 34003KT 5SM BR FEW250
     FM171500 33005KT P6SM FEW040 FEW250=



000
FTUS42 KFFC 162300
TAFRYY
TAF
KRYY 162328Z 1700/1724 33005KT P6SM SCT250
     FM170900 34003KT 5SM BR FEW250
     FM171500 33005KT P6SM FEW040 FEW250
      AMD NOT SKED 1704/1712=



000
FTUS42 KFFC 162100 AAB
TAFATL
TAF AMD
KATL 162147Z 1622/1724 33008KT P6SM FEW040 SCT120
     FM170200 35006KT P6SM SCT250
     FM170900 34006KT 6SM BR FEW250
     FM171500 33007KT P6SM FEW040 FEW250=



000
FTUS42 KFFC 161900 AAA
TAFATL
TAF AMD
KATL 161953Z 1620/1724 33008KT P6SM VCSH SCT040 BKN120
     FM170200 35006KT P6SM SCT250
     FM170900 34006KT 6SM BR FEW250
     FM171500 33007KT P6SM FEW040 FEW250=



000
FTUS42 KFFC 161700 RRA
TAFAHN
TAF
KAHN 161742Z 1618/1718 32005KT P6SM SCT035 BKN120
     FM162000 31008KT P6SM VCSH SCT040 BKN100
     FM170200 VRB03KT P6SM SCT120 BKN250
     FM170900 00000KT 3SM BR FEW250
     FM171500 33005KT P6SM FEW040 FEW250=



000
FTUS42 KFFC 161700 RRA
TAFMCN
TAF
KMCN 161742Z 1618/1718 27007KT P6SM VCSH SCT025 BKN040
      TEMPO 1619/1623 5SM -TSRA BR BKN025CB
     FM170100 30005KT P6SM SCT120 BKN250
     FM170700 00000KT 4SM BR FEW250
     FM171500 33005KT P6SM FEW040 FEW250=



000
FTUS42 KFFC 161700 RRA
TAFATL
TAF
KATL 161742Z 1618/1724 33009KT P6SM VCSH SCT025 BKN120
     FM162000 33010KT P6SM VCSH SCT040 BKN120
     FM170200 35006KT P6SM SCT250
     FM170900 34006KT 6SM BR FEW250
     FM171500 33007KT P6SM FEW040 FEW250=



000
FTUS42 KFFC 161700 RRA
TAFRYY
TAF
KRYY 161742Z 1618/1718 32005KT P6SM VCSH SCT025 BKN050
     FM162000 33009KT P6SM VCSH SCT040 BKN120
     FM170200 00000KT P6SM SCT250
     FM170900 00000KT 5SM BR FEW250
     FM171500 33005KT P6SM FEW040 FEW250=



000
FTUS42 KFFC 161700 RRA
TAFCSG
TAF
KCSG 161742Z 1618/1718 34005KT P6SM VCSH SCT025 BKN040
      TEMPO 1619/1623 5SM -TSRA BR BKN025CB
     FM170100 30005KT P6SM SCT120 BKN250
     FM170700 00000KT 6SM BR FEW250
     FM171500 34005KT P6SM FEW040 FEW250=



000
FTUS42 KFFC 161700 RRA
TAFFTY
TAF
KFTY 161742Z 1618/1718 32005KT P6SM VCSH SCT025 BKN050
     FM162000 33009KT P6SM VCSH SCT040 BKN120
     FM170200 00000KT P6SM SCT250
     FM170900 00000KT 5SM BR FEW250
     FM171500 33005KT P6SM FEW040 FEW250=



000
FTUS42 KFFC 161700 RRA
TAFPDK
TAF
KPDK 161742Z 1618/1718 32005KT P6SM VCSH SCT025 BKN050
     FM162000 33009KT P6SM VCSH SCT040 BKN120
     FM170200 00000KT P6SM SCT250
     FM170900 00000KT 5SM BR FEW250
     FM171500 33005KT P6SM FEW040 FEW250=



000
FTUS42 KFFC 161500 AAB
TAFATL
TAF AMD
KATL 161557Z 1616/1718 32007KT P6SM BKN015
      TEMPO 1616/1618 SCT015
     FM161800 33009KT P6SM SCT025 BKN040
     FM162000 33010KT P6SM VCSH SCT045 BKN120
     FM170200 35006KT P6SM BKN250
     FM171400 33008KT P6SM SCT250=



000
FTUS42 KFFC 161500 AAB
TAFCSG
TAF AMD
KCSG 161555Z 1616/1712 34005KT P6SM VCSH SCT025 BKN040
      TEMPO 1617/1621 5SM -TSRA BR BKN025CB
     FM162100 28009KT P6SM SCT050 BKN100
     FM170200 30005KT P6SM SCT120 BKN250=



000
FTUS42 KFFC 161500 AAB
TAFAHN
TAF AMD
KAHN 161554Z 1616/1712 30007KT P6SM SCT025 BKN040
     FM161900 31008KT P6SM VCSH SCT050 BKN100
     FM170200 30003KT P6SM SCT120 BKN250=



000
FTUS42 KFFC 161300 AAA
TAFPDK
TAF AMD
KPDK 161358Z 1614/1712 30006KT 6SM BR BKN015
     FM161700 33008KT P6SM SCT025 BKN050
     FM161900 33009KT P6SM VCSH SCT050 BKN120
     FM170200 34005KT P6SM SCT120 BKN250=



000
FTUS42 KFFC 161300 AAA
TAFATL
TAF AMD
KATL 161357Z 1614/1718 32006KT 6SM BR BKN007
     FM161600 32007KT P6SM BKN015
     FM161800 33009KT P6SM SCT025 BKN050
     FM162000 33010KT P6SM VCSH SCT050 BKN120
     FM170200 35006KT P6SM BKN250
     FM171400 33008KT P6SM SCT250=



000
FTUS42 KFFC 161300 AAA
TAFAHN
TAF AMD
KAHN 161330Z 1614/1712 VRB02KT 5SM BR SCT005
      TEMPO 1614/1615 5SM -RA BR BKN005
     FM161500 28005KT P6SM VCSH BKN015
     FM161700 30007KT P6SM SCT025 BKN040
     FM161900 31008KT P6SM SCT050 BKN100
     FM170200 30003KT P6SM SCT120 BKN250=



000
FTUS42 KFFC 161300 AAA
TAFMCN
TAF AMD
KMCN 161328Z 1613/1712 24005KT P6SM VCSH BKN015
     FM161700 27007KT P6SM VCSH SCT025 BKN040
      TEMPO 1617/1621 5SM -TSRA BR BKN025CB
     FM162100 28009KT P6SM SCT050 BKN100
     FM170200 30005KT P6SM SCT120 BKN250=



000
FTUS42 KFFC 161100 AAA
TAFCSG
TAF AMD
KCSG 161139Z 1612/1712 VRB03KT 6SM BR BKN005
     FM161400 24005KT P6SM VCSH BKN015
     FM161700 27007KT P6SM VCSH SCT025 BKN040
      TEMPO 1617/1621 5SM -TSRA BR BKN025CB
     FM162100 28009KT P6SM SCT050 BKN100
     FM170200 30005KT P6SM SCT120 BKN250=



000
FTUS42 KFFC 161100
TAFAHN
TAF
KAHN 161128Z 1612/1712 VRB02KT 1SM BR OVC003
      TEMPO 1612/1615 5SM -RA BR BKN005
     FM161500 28005KT P6SM VCSH BKN015
     FM161700 30007KT P6SM SCT025 BKN040
     FM161900 31008KT P6SM SCT050 BKN100
     FM170200 30003KT P6SM SCT120 BKN250=



000
FTUS42 KFFC 161100
TAFPDK
TAF
KPDK 161128Z 1612/1712 VRB03KT 5SM BR SCT007 BKN015
      TEMPO 1612/1615 4SM -RA BR BKN007
     FM161500 30006KT P6SM VCSH BKN015
     FM161700 33008KT P6SM SCT025 BKN050
     FM161900 33009KT P6SM SCT050 BKN120
     FM170200 34005KT P6SM SCT120 BKN250=



000
FTUS42 KFFC 161100
TAFMCN
TAF
KMCN 161128Z 1612/1712 VRB03KT 6SM BR OVC007
     FM161500 24005KT P6SM VCSH BKN015
     FM161700 27007KT P6SM VCSH SCT025 BKN040
      TEMPO 1617/1621 5SM -TSRA BR BKN025CB
     FM162100 28009KT P6SM SCT050 BKN100
     FM170200 30005KT P6SM SCT120 BKN250=



000
FTUS42 KFFC 161100
TAFATL
TAF
KATL 161128Z 1612/1718 30003KT 3SM BR OVC003
      TEMPO 1612/1614 4SM -RA BR BKN005
     FM161400 31003KT 6SM BR VCSH BKN007
     FM161600 32007KT P6SM BKN015
     FM161800 33009KT P6SM SCT025 BKN050
     FM162000 33010KT P6SM SCT050 BKN120
     FM170200 35006KT P6SM BKN250
     FM171400 33008KT P6SM SCT250=



000
FTUS42 KFFC 161100
TAFRYY
TAF
KRYY 161128Z 1612/1712 VRB03KT 3SM BR OVC005
      TEMPO 1612/1615 4SM -RA BR BKN007
     FM161500 30006KT P6SM VCSH BKN015
     FM161700 33008KT P6SM SCT025 BKN050
     FM161900 33009KT P6SM SCT050 BKN120
     FM170200 34005KT P6SM SCT120 BKN250=



000
FTUS42 KFFC 161100
TAFCSG
TAF
KCSG 161128Z 1612/1712 VRB03KT 6SM BR SCT008
     FM161400 24005KT P6SM VCSH BKN015
     FM161700 27007KT P6SM VCSH SCT025 BKN040
      TEMPO 1617/1621 5SM -TSRA BR BKN025CB
     FM162100 28009KT P6SM SCT050 BKN100
     FM170200 30005KT P6SM SCT120 BKN250=



000
FTUS42 KFFC 161100
TAFFTY
TAF
KFTY 161128Z 1612/1712 VRB03KT 6SM BR OVC005
      TEMPO 1612/1615 5SM -RA BR BKN007
     FM161500 30006KT P6SM VCSH BKN015
     FM161700 33008KT P6SM SCT025 BKN050
     FM161900 33009KT P6SM SCT050 BKN120
     FM170200 34005KT P6SM SCT120 BKN250=



000
FTUS42 KFFC 160900 AAB
TAFAHN
TAF AMD
KAHN 160950Z 1610/1706 VRB02KT 1SM BR OVC003
      TEMPO 1612/1615 5SM -RA BR BKN005
     FM161500 28005KT P6SM VCSH BKN015
     FM161700 30007KT P6SM SCT025 BKN040
     FM161900 31008KT P6SM SCT050 BKN100
     FM170200 30003KT P6SM SCT120 BKN250=



000
FTUS42 KFFC 160900 AAA
TAFRYY
TAF AMD
KRYY 160947Z 1610/1706 VRB03KT 6SM BR OVC008
      TEMPO 1611/1615 5SM -RA BR BKN005
     FM161500 30006KT P6SM VCSH BKN015
     FM161700 33009KT P6SM SCT025 BKN040
     FM161900 33010KT P6SM SCT050 BKN100
     FM170200 35006KT P6SM SCT120 BKN250
      AMD NOT SKED TIL 161200=



000
FTUS42 KFFC 160900 AAB
TAFPDK
TAF AMD
KPDK 160942Z 1610/1706 VRB03KT 6SM BR SCT007 BKN015
      TEMPO 1611/1615 5SM -RA BR BKN007
     FM161500 30006KT P6SM VCSH BKN015
     FM161700 33009KT P6SM SCT025 BKN040
     FM161900 33010KT P6SM SCT050 BKN100
     FM170200 35006KT P6SM SCT120 BKN250=



000
FTUS42 KFFC 160900 AAA
TAFFTY
TAF AMD
KFTY 160942Z 1610/1706 VRB03KT 6SM BR OVC007
      TEMPO 1611/1615 5SM -RA BR BKN005
     FM161500 30006KT P6SM VCSH BKN015
     FM161700 33009KT P6SM SCT025 BKN040
     FM161900 33010KT P6SM SCT050 BKN100
     FM170200 35006KT P6SM SCT120 BKN250=



000
FTUS42 KFFC 160900 AAF
TAFATL
TAF AMD
KATL 160939Z 1610/1712 23003KT 4SM BR OVC004
      TEMPO 1610/1614 5SM -RA BR BKN005
     FM161400 28003KT 6SM BR VCSH BKN008
     FM161600 31007KT P6SM BKN015
     FM161700 33009KT P6SM SCT025 BKN040
     FM162000 33010KT P6SM SCT050 BKN100
     FM170200 35006KT P6SM SCT120 BKN250=



000
FTUS42 KFFC 160900 AAE
TAFATL
TAF AMD
KATL 160907Z 1609/1712 17003KT 4SM BR OVC004
      TEMPO 1609/1612 5SM -RA BR BKN005
     FM161200 24003KT 5SM BR VCSH BKN006
     FM161400 31007KT P6SM BKN015
     FM161600 32008KT P6SM SCT025 BKN040
     FM161800 33010KT P6SM SCT050 BKN100
     FM170200 35006KT P6SM SCT120 BKN250=



000
FTUS42 KFFC 160900 AAB
TAFCSG
TAF AMD
KCSG 160902Z 1609/1706 VRB03KT P6SM SCT007 BKN060
     FM161000 VRB03KT 6SM BR BKN007
     FM161400 28005KT P6SM VCSH BKN015
     FM161600 32006KT P6SM VCSH SCT025 BKN040
      TEMPO 1616/1620 5SM -TSRA BR BKN025CB
     FM162100 33008KT P6SM SCT050 BKN100
     FM170200 34004KT P6SM SCT120 BKN250=



000
FTUS42 KFFC 160900 AAA
TAFPDK
TAF AMD
KPDK 160902Z 1609/1706 VRB03KT 5SM BR VCSH BKN015
     FM161000 23003KT 4SM BR BKN007
     FM161300 31005KT 6SM BR BKN015
     FM161500 33008KT P6SM SCT025 BKN040
     FM161800 33010KT P6SM SCT050 BKN100
     FM170200 35005KT P6SM SCT120 BKN250=



000
FTUS42 KFFC 160800 AAA
TAFMCN
TAF AMD
KMCN 160848Z 1609/1706 22003KT 5SM BR BKN008
     FM161400 25005KT P6SM VCSH BKN015
     FM161600 30007KT P6SM VCSH SCT025 BKN040
      TEMPO 1616/1620 5SM -TSRA BR BKN025CB
     FM162100 33009KT P6SM SCT050 BKN100
     FM170200 34005KT P6SM SCT120 BKN250=



000
FTUS42 KFFC 160800 AAA
TAFAHN
TAF AMD
KAHN 160847Z 1609/1706 VRB03KT 3SM BR BKN004
     FM161200 VRB03KT 4SM BR BKN006
     FM161400 31005KT 6SM BR BKN015
     FM161600 33008KT P6SM SCT025 BKN040
     FM161800 33010KT P6SM SCT050 BKN100
     FM170200 35005KT P6SM SCT120 BKN250=



000
FTUS42 KFFC 160700 AAD
TAFATL
TAF AMD
KATL 160752Z 1608/1712 17003KT 5SM BR VCSH SCT006 BKN150
      TEMPO 1608/1610 4SM -RA BR BKN006
     FM161000 23003KT 4SM BR BKN006
     FM161400 31007KT P6SM BKN015
     FM161600 32008KT P6SM SCT025 BKN040
     FM161800 33010KT P6SM SCT050 BKN100
     FM170200 35006KT P6SM SCT120 BKN250=



000
FTUS42 KFFC 160700 AAC
TAFATL
TAF AMD
KATL 160738Z 1608/1712 17003KT 6SM BR VCSH FEW005 BKN040
      TEMPO 1608/1610 5SM -SHRA BR BKN015
     FM161000 23003KT 5SM BR BKN006
     FM161400 31007KT 6SM BR BKN015
     FM161600 32008KT P6SM SCT025 BKN040
     FM161800 33010KT P6SM SCT050 BKN100
     FM170200 35006KT P6SM SCT120 BKN250=



000
FTUS42 KFFC 160700 AAA
TAFCSG
TAF AMD
KCSG 160728Z 1607/1706 15003KT 6SM BR BKN009
     FM161000 22003KT 5SM BR BKN007
     FM161400 28005KT P6SM VCSH BKN015
     FM161600 32006KT P6SM VCSH SCT025 BKN040
      TEMPO 1616/1620 5SM -TSRA BR BKN025CB
     FM162100 33008KT P6SM SCT050 BKN100
     FM170200 34004KT P6SM SCT120 BKN250=



000
FTUS42 KFFC 160700 AAB
TAFATL
TAF AMD
KATL 160718Z 1607/1712 17003KT 6SM BR VCSH FEW005 BKN040
      TEMPO 1607/1609 5SM -SHRA BR BKN015
     FM160900 23003KT 5SM BR BKN006
     FM161300 31007KT 6SM BR BKN015
     FM161600 32008KT P6SM SCT025 BKN040
     FM161800 33010KT P6SM SCT050 BKN100
     FM170200 35006KT P6SM SCT120 BKN250=



000
FTUS42 KFFC 160600 AAA
TAFATL
TAF AMD
KATL 160620Z 1606/1712 19003KT P6SM VCSH FEW006 BKN040
      TEMPO 1606/1609 6SM -SHRA BR BKN015
     FM160900 24003KT 5SM BR BKN006
     FM161300 31007KT 6SM BR BKN015
     FM161600 32008KT P6SM SCT025 BKN040
     FM161800 33010KT P6SM SCT050 BKN100
     FM170200 35006KT P6SM SCT120 BKN250=



000
FTUS42 KFFC 160500
TAFATL
TAF
KATL 160533Z 1606/1712 19003KT P6SM VCSH FEW006 BKN015
     FM160900 24003KT 4SM BR BKN006
     FM161300 31007KT 6SM BR BKN015
     FM161600 32008KT P6SM SCT025 BKN040
     FM161800 33010KT P6SM SCT050 BKN100
     FM170200 35006KT P6SM SCT120 BKN250=



000
FTUS42 KFFC 160500
TAFCSG
TAF
KCSG 160533Z 1606/1706 15003KT 6SM BR BKN015
     FM160900 22003KT 5SM BR BKN007
     FM161400 27005KT P6SM VCSH BKN015
     FM161600 32007KT P6SM VCSH SCT025 BKN040
      TEMPO 1616/1620 5SM -TSRA BR BKN025CB
     FM162100 33009KT P6SM SCT050 BKN100
     FM170200 34005KT P6SM SCT120 BKN250=



000
FTUS42 KFFC 160500
TAFAHN
TAF
KAHN 160533Z 1606/1706 15003KT 4SM BR VCSH BKN015
     FM160800 22003KT 3SM BR BKN007
     FM161400 31005KT 6SM BR BKN015
     FM161600 33008KT P6SM SCT025 BKN040
     FM161800 33010KT P6SM SCT050 BKN100
     FM170200 35005KT P6SM SCT120 BKN250=



000
FTUS42 KFFC 160500
TAFFTY
TAF
KFTY 160533Z 1606/1706 16003KT 6SM BR VCSH BKN015
     FM160900 23003KT 4SM BR BKN007
     FM161300 31005KT 6SM BR BKN015
     FM161500 33008KT P6SM SCT025 BKN040
     FM161800 33010KT P6SM SCT050 BKN100
     FM170200 35005KT P6SM SCT120 BKN250=



000
FTUS42 KFFC 160500
TAFMCN
TAF
KMCN 160533Z 1606/1706 16003KT 5SM BR BKN015
     FM160900 22003KT 4SM BR BKN007
     FM161400 27005KT P6SM VCSH BKN015
     FM161600 32007KT P6SM VCSH SCT025 BKN040
      TEMPO 1616/1620 5SM -TSRA BR BKN025CB
     FM162100 33009KT P6SM SCT050 BKN100
     FM170200 34005KT P6SM SCT120 BKN250=



000
FTUS42 KFFC 160500
TAFPDK
TAF
KPDK 160533Z 1606/1706 16003KT 5SM BR VCSH BKN015
     FM160900 23003KT 4SM BR BKN007
     FM161300 31005KT 6SM BR BKN015
     FM161500 33008KT P6SM SCT025 BKN040
     FM161800 33010KT P6SM SCT050 BKN100
     FM170200 35005KT P6SM SCT120 BKN250=



000
FTUS42 KFFC 160500
TAFRYY
TAF
KRYY 160533Z 1606/1706 16003KT 5SM BR VCSH BKN015
     FM160900 VRB03KT 4SM BR BKN007
     FM161300 31005KT 6SM BR BKN015
     FM161500 33008KT P6SM SCT025 BKN040
     FM161800 33010KT P6SM SCT050 BKN100
     FM170200 35005KT P6SM SCT120 BKN250
      AMD NOT SKED TIL 161200=



000
FTUS42 KFFC 160400 AAC
TAFATL
TAF AMD
KATL 160452Z 1605/1706 15004KT P6SM VCSH SCT015 BKN050
     FM160600 16004KT 6SM BR BKN012
     FM160900 21003KT 4SM BR BKN006
     FM161300 32007KT 6SM BR BKN012
     FM161600 33008KT P6SM SCT025 BKN040
     FM161800 33012KT P6SM SCT050 BKN100=



000
FTUS42 KFFC 160400 AAB
TAFFTY
TAF AMD
KFTY 160415Z 1604/1624 VRB03KT 6SM BR BKN015
     FM160800 VRB03KT 3SM BR VCSH BKN009
     FM161200 32005KT 6SM BR BKN015
     FM161500 33008KT P6SM SCT025 BKN040
     FM161800 33010KT P6SM SCT050 BKN100=



000
FTUS42 KFFC 160400 AAB
TAFFTY
TAF AMD
KFTY 160415Z 1604/1624 VRB03KT 6SM BR BKN015
     FM160800 VRB03KT 3SM BR VCSH BKN009
     FM161200 32005KT 6SM BR BKN015
     FM161500 33008KT P6SM SCT025 BKN040
     FM161800 33010KT P6SM SCT050 BKN100=



000
FTUS42 KFFC 160400 AAB
TAFPDK
TAF AMD
KPDK 160415Z 1604/1624 VRB03KT 6SM BR BKN050
     FM160800 VRB03KT 3SM BR BKN008
     FM161200 32005KT 6SM BR BKN015
     FM161500 33008KT P6SM SCT025 BKN040
     FM161800 33010KT P6SM SCT050 BKN100=



000
FTUS42 KFFC 160400 AAB
TAFPDK
TAF AMD
KPDK 160415Z 1604/1624 VRB03KT 6SM BR BKN050
     FM160800 VRB03KT 3SM BR BKN008
     FM161200 32005KT 6SM BR BKN015
     FM161500 33008KT P6SM SCT025 BKN040
     FM161800 33010KT P6SM SCT050 BKN100=



000
FTUS42 KFFC 160300 AAB
TAFATL
TAF AMD
KATL 160359Z 1604/1706 14005KT P6SM VCSH SCT015 BKN045
     FM160500 11004KT 5SM BR BKN015
     FM160800 VRB03KT 5SM BR BKN009
     FM161200 32007KT 6SM BR BKN015
     FM161500 33008KT P6SM SCT025 BKN040
     FM161800 33012KT P6SM SCT050 BKN100=



000
FTUS42 KFFC 160200 AAA
TAFPDK
TAF AMD
KPDK 160218Z 1602/1624 VRB03KT 6SM BR SCT025 BKN100
     FM160400 VRB03KT 4SM BR BKN012
     FM160600 VRB03KT 3SM BR BKN008
     FM161200 32005KT 6SM BR BKN015
     FM161500 33008KT P6SM SCT025 BKN040
     FM161800 33010KT P6SM SCT050 BKN100=



000
FTUS42 KFFC 160200 AAA
TAFFTY
TAF AMD
KFTY 160216Z 1602/1624 VRB03KT P6SM SCT020
     FM160500 VRB03KT 5SM BR BKN015
     FM160800 VRB03KT 3SM BR VCSH BKN009
     FM161200 32005KT 6SM BR BKN015
     FM161500 33008KT P6SM SCT025 BKN040
     FM161800 33010KT P6SM SCT050 BKN100=



000
FTUS42 KFFC 160200 AAA
TAFATL
TAF AMD
KATL 160202Z 1602/1706 14005KT P6SM VCSH SCT015 BKN045
     FM160500 11004KT 5SM BR BKN015
     FM160800 VRB03KT 5SM BR BKN009
     FM161200 32007KT 6SM BR BKN015
     FM161500 33008KT P6SM SCT025 BKN040
     FM161800 33012KT P6SM SCT050 BKN100=



000
FTUS42 KFFC 152300
TAFCSG
TAF
KCSG 152334Z 1600/1624 05005KT P6SM VCSH SCT035 BKN060
      TEMPO 1601/1603 4SM -TSRA BKN015CB
     FM160300 VRB03KT P6SM VCSH SCT030 BKN050
     FM160600 VRB03KT 5SM BR VCSH BKN012
     FM161000 VRB03KT 3SM BR BKN008
     FM161500 31008KT P6SM SCT025 BKN040=



000
FTUS42 KFFC 152300
TAFATL
TAF
KATL 152334Z 1600/1706 14005KT P6SM FEW015 BKN025
      TEMPO 1600/1603 4SM -TSRA BKN015CB
     FM160800 VRB03KT 5SM BR VCSH BKN009
     FM161200 32007KT 6SM BR BKN015
     FM161500 33008KT P6SM SCT025 BKN040
     FM161800 33012KT P6SM SCT050 BKN100=



000
FTUS42 KFFC 152300
TAFFTY
TAF
KFTY 152334Z 1600/1624 VRB03KT P6SM BKN030
      TEMPO 1601/1603 4SM -TSRA BKN015CB
     FM160800 VRB03KT 5SM BR VCSH BKN009
     FM161200 32005KT 6SM BR BKN015
     FM161500 33008KT P6SM SCT025 BKN040
     FM161800 33010KT P6SM SCT050 BKN100=



000
FTUS42 KFFC 152300
TAFRYY
TAF
KRYY 152334Z 1600/1624 12005KT P6SM VCSH OVC020
      TEMPO 1600/1603 4SM -TSRA BKN015CB
     FM160600 VRB03KT 4SM BR VCSH BKN009
     FM161200 32005KT 6SM BR BKN015
     FM161500 33008KT P6SM SCT025 BKN040
     FM161800 33010KT P6SM SCT050 BKN100
      AMD NOT SKED 1604/1612=



000
FTUS42 KFFC 152300
TAFMCN
TAF
KMCN 152334Z 1600/1624 05006KT P6SM VCSH SCT035 BKN060
      TEMPO 1601/1603 4SM -TSRA BKN015CB
     FM160300 VRB03KT P6SM VCSH SCT030 BKN050
     FM160600 VRB03KT 5SM BR VCSH BKN012
     FM161000 VRB03KT 3SM BR BKN008
     FM161500 31008KT P6SM SCT025 BKN040=



000
FTUS42 KFFC 152300
TAFAHN
TAF
KAHN 152334Z 1600/1624 VRB03KT P6SM VCSH OVC015
     FM160600 VRB03KT 3SM BR VCSH BKN008
     FM161200 28005KT 5SM BR BKN015
     FM161500 27008KT P6SM SCT025 BKN040
     FM161800 26010KT P6SM SCT050 BKN100=



000
FTUS42 KFFC 152300
TAFPDK
TAF
KPDK 152334Z 1600/1624 VRB03KT P6SM VCSH BKN025
      TEMPO 1601/1604 4SM -TSRA BKN025CB
     FM160800 VRB03KT 5SM BR VCSH BKN009
     FM161200 32005KT 6SM BR BKN015
     FM161500 33008KT P6SM SCT025 BKN040
     FM161800 33010KT P6SM SCT050 BKN100=



000
FTUS42 KFFC 152200 AAA
TAFRYY
TAF AMD
KRYY 152202Z 1522/1618 VRB03KT P6SM VCSH OVC020
      TEMPO 1601/1604 4SM -TSRA BKN025CB
     FM160600 25003KT 5SM BR VCSH BKN025
     FM161200 32005KT 6SM BR BKN015
     FM161500 33008KT P6SM SCT025 BKN040=



000
FTUS42 KFFC 152200 AAA
TAFPDK
TAF AMD
KPDK 152200Z 1522/1618 VRB03KT P6SM VCSH BKN020
      TEMPO 1601/1604 4SM -TSRA BKN025CB
     FM160600 25003KT 5SM BR VCSH BKN025
     FM161200 32005KT 6SM BR BKN015
     FM161500 33008KT P6SM SCT025 BKN040=



000
FTUS42 KFFC 152100 AAB
TAFATL
TAF AMD
KATL 152159Z 1522/1624 14004KT P6SM FEW015 BKN020
      TEMPO 1523/1603 4SM -TSRA BKN025CB
     FM160600 25005KT 5SM BR VCSH BKN025
     FM161200 32007KT 6SM BR BKN015
     FM161500 33008KT P6SM SCT025 BKN040
     FM161800 33011KT P6SM SCT050 BKN100=



000
FTUS42 KFFC 151900 AAA
TAFATL
TAF AMD
KATL 151953Z 1520/1624 16003KT P6SM BKN025
     FM152200 VRB03KT P6SM VCSH BKN035
      TEMPO 1523/1603 4SM -TSRA BKN025CB
     FM160600 25005KT 5SM BR VCSH BKN025
     FM161200 32007KT 6SM BR BKN015
     FM161500 33008KT P6SM SCT025 BKN040
     FM161800 33011KT P6SM SCT050 BKN100=



000
FTUS42 KFFC 151900 AAB
TAFCSG
TAF AMD
KCSG 151920Z 1519/1618 09003KT P6SM SCT020 BKN040
     FM152200 23006KT P6SM VCSH SCT025 BKN040
      TEMPO 1522/1602 4SM -TSRA BKN025CB
     FM160300 VRB03KT P6SM VCSH SCT030 BKN050
     FM160600 25003KT 5SM BR VCSH BKN025
     FM161000 28005KT 6SM BR BKN008
     FM161500 31008KT P6SM SCT025 BKN040=



000
FTUS42 KFFC 151900 AAA
TAFMCN
TAF AMD
KMCN 151920Z 1519/1618 09003KT P6SM SCT020 BKN040
     FM152200 23006KT P6SM VCSH SCT025 BKN040
      TEMPO 1522/1602 4SM -TSRA BKN025CB
     FM160300 VRB03KT P6SM VCSH SCT030 BKN050
     FM160600 25003KT 5SM BR VCSH BKN025
     FM161000 28005KT 6SM BR BKN008
     FM161500 31008KT P6SM SCT025 BKN040=



000
FTUS42 KFFC 151800 AAA
TAFCSG
TAF AMD
KCSG 151809Z 1518/1618 VRB03KT P6SM BKN012
     FM152000 23006KT P6SM VCSH SCT025 BKN040
      TEMPO 1522/1602 4SM -TSRA BKN025CB
     FM160300 VRB03KT P6SM VCSH SCT030 BKN050
     FM160600 25003KT 5SM BR VCSH BKN025
     FM161000 28005KT 6SM BR BKN008
     FM161500 31008KT P6SM SCT025 BKN040=



000
FTUS42 KFFC 151800 CCA
TAFMCN
TAF COR
KMCN 151809Z 1518/1618 VRB03KT P6SM BKN015
     FM152000 23006KT P6SM VCSH SCT025 BKN040
      TEMPO 1522/1602 4SM -TSRA BKN025CB
     FM160300 VRB03KT P6SM VCSH SCT030 BKN050
     FM160600 25003KT 5SM BR VCSH BKN025
     FM161000 28005KT 6SM BR BKN008
     FM161500 31008KT P6SM SCT025 BKN040=



000
FTUS42 KFFC 151700
TAFATL
TAF
KATL 151721Z 1518/1624 13006KT P6SM BKN015
     FM152000 16006KT P6SM BKN025
     FM152200 22006KT P6SM VCSH SCT030 BKN050
      TEMPO 1601/1604 4SM -TSRA BKN025CB
     FM160600 25005KT 5SM BR VCSH BKN025
     FM161200 32007KT 6SM BR BKN015
     FM161500 33008KT P6SM SCT025 BKN040
     FM161800 33011KT P6SM SCT050 BKN100=



000
FTUS42 KFFC 151700
TAFCSG
TAF
KCSG 151721Z 1518/1618 VRB03KT P6SM BKN012
     FM152000 23006KT P6SM VCSH SCT025 BKN040
      TEMPO 1522/1602 4SM -TSRA BKN025CB
     FM160300 VRB03KT P6SM VCSH SCT030 BKN050
     FM160600 25003KT 5SM BR VCSH BKN025
     FM161200 28005KT 6SM BR BKN015
     FM161600 31008KT P6SM SCT025 BKN040=



000
FTUS42 KFFC 151700
TAFRYY
TAF
KRYY 151721Z 1518/1618 13003KT P6SM BKN015
     FM152000 16003KT P6SM BKN025
     FM152200 22003KT P6SM VCSH BKN030
      TEMPO 1601/1604 4SM -TSRA BKN025CB
     FM160600 25003KT 5SM BR VCSH BKN025
     FM161200 32005KT 6SM BR BKN015
     FM161500 33008KT P6SM SCT025 BKN040=



000
FTUS42 KFFC 151700
TAFFTY
TAF
KFTY 151721Z 1518/1618 13003KT P6SM BKN015
     FM152000 16003KT P6SM BKN025
     FM152200 22003KT P6SM VCSH BKN030
      TEMPO 1601/1604 4SM -TSRA BKN025CB
     FM160600 25003KT 5SM BR VCSH BKN025
     FM161200 32005KT 6SM BR BKN015
     FM161500 33008KT P6SM SCT025 BKN040=



000
FTUS42 KFFC 151700
TAFMCN
TAF
KMCN 151721Z 1518/1618 VRB03KT P6SM BKN015
     FM152000 23006KT P6SM VCSH SCT025 BKN040
      TEMPO 1522/1602 4SM -TSRA BKN025CB
     FM160300 VRB03KT P6SM VCSH SCT030 BKN050
     FM160600 25003KT 5SM BR VCSH BKN025
     FM161200 28005KT 6SM BR BKN015
     FM161600 31008KT P6SM SCT025 BKN040=



000
FTUS42 KFFC 151700
TAFPDK
TAF
KPDK 151721Z 1518/1618 13003KT P6SM BKN015
     FM152000 16003KT P6SM BKN025
     FM152200 22003KT P6SM VCSH BKN030
      TEMPO 1601/1604 4SM -TSRA BKN025CB
     FM160600 25003KT 5SM BR VCSH BKN025
     FM161200 32005KT 6SM BR BKN015
     FM161500 33008KT P6SM SCT025 BKN040=



000
FTUS42 KFFC 151700
TAFAHN
TAF
KAHN 151721Z 1518/1618 12006KT 6SM BR BKN008
     FM152000 13003KT P6SM BKN012
     FM152200 22003KT P6SM VCSH BKN025
      TEMPO 1601/1604 4SM -TSRA BKN020CB
     FM160600 25003KT 5SM BR VCSH BKN025
     FM161200 32005KT 6SM BR BKN015=



000
FTUS42 KFFC 151600 AAA
TAFCSG
TAF AMD
KCSG 151607Z 1516/1612 11004KT P6SM BKN008
     FM151700 11006KT P6SM BKN012
     FM151800 14006KT P6SM BKN025
     FM151900 19006KT P6SM VCSH SCT025 BKN040
      TEMPO 1521/1601 4SM -TSRA BKN025CB
     FM160300 VRB03KT P6SM VCSH SCT030 BKN050=



000
FTUS42 KFFC 151600 AAA
TAFAHN
TAF AMD
KAHN 151601Z 1516/1612 07005KT 6SM BR OVC008
     FM151800 12006KT P6SM BKN015
     FM152000 20006KT P6SM VCSH SCT025 BKN040
      TEMPO 1521/1601 4SM -TSRA BKN025CB
     FM160300 23004KT P6SM VCSH SCT030 BKN050
     FM160900 28003KT 4SM BR OVC025=



000
FTUS42 KFFC 151500 AAB
TAFATL
TAF AMD
KATL 151543Z 1516/1618 09006KT 5SM BR BKN008
     FM151800 13006KT P6SM BKN015
     FM152200 22006KT P6SM VCSH SCT025 BKN040
      TEMPO 1523/1603 4SM -TSRA BKN025CB
     FM160600 25005KT 5SM BR VCSH BKN025
     FM161200 32007KT 6SM BR BKN015
     FM161500 35008KT P6SM SCT025 BKN040=



000
FTUS42 KFFC 151300 AAA
TAFATL
TAF AMD
KATL 151349Z 1514/1618 10006KT 2SM BR OVC004
     FM151600 13006KT 5SM BR BKN008
     FM151800 19006KT P6SM BKN015
     FM152000 22006KT P6SM VCSH SCT025 BKN040
      TEMPO 1521/1601 4SM -TSRA BKN025CB
     FM160600 25005KT 5SM BR VCSH BKN025
     FM161200 32007KT 6SM BR BKN015
     FM161500 35008KT P6SM SCT025 BKN040=



000
FTUS42 KFFC 151100
TAFMCN
TAF
KMCN 151133Z 1512/1612 07005KT 4SM BR OVC004
     FM151400 10005KT P6SM OVC008
     FM151600 13006KT P6SM BKN012
     FM151800 19006KT P6SM BKN025
     FM152000 23006KT P6SM VCSH SCT025 BKN040
      TEMPO 1521/1601 4SM -TSRA BKN025CB
     FM160300 VRB03KT P6SM VCSH SCT030 BKN050=



000
FTUS42 KFFC 151100
TAFFTY
TAF
KFTY 151133Z 1512/1612 06003KT 5SM BR OVC005
     FM151400 09005KT P6SM OVC008
     FM151600 13006KT P6SM BKN012
     FM151800 19006KT P6SM BKN025
     FM152000 22006KT P6SM VCSH SCT025 BKN040
      TEMPO 1521/1601 4SM -TSRA BKN025CB
     FM160600 25004KT 5SM BR VCSH BKN025
     FM161100 32007KT 6SM BR BKN015=



000
FTUS42 KFFC 151100
TAFPDK
TAF
KPDK 151133Z 1512/1612 06003KT 4SM BR OVC005
     FM151400 09005KT P6SM OVC008
     FM151600 13006KT P6SM BKN012
     FM151800 19006KT P6SM BKN025
     FM152000 22006KT P6SM VCSH SCT025 BKN040
      TEMPO 1521/1601 4SM -TSRA BKN025CB
     FM160600 25004KT P6SM VCSH BKN025
     FM161000 32007KT 6SM BR BKN015=



000
FTUS42 KFFC 151100
TAFAHN
TAF
KAHN 151133Z 1512/1612 06005KT 6SM BR OVC008
     FM151500 09006KT P6SM BKN015
     FM151700 12006KT P6SM BKN025
     FM151900 20006KT P6SM VCSH SCT025 BKN040
      TEMPO 1521/1601 4SM -TSRA BKN025CB
     FM160300 23004KT P6SM VCSH SCT030 BKN050
     FM160900 28003KT 4SM BR OVC025=



000
FTUS42 KFFC 151100
TAFRYY
TAF
KRYY 151133Z 1512/1612 06003KT 4SM BR OVC005
     FM151400 09005KT P6SM OVC008
     FM151600 13006KT P6SM BKN012
     FM151800 19006KT P6SM BKN025
     FM152000 22006KT P6SM VCSH SCT025 BKN040
      TEMPO 1521/1601 4SM -TSRA BKN025CB
     FM160600 25004KT P6SM VCSH BKN025
     FM161000 32007KT 6SM BR BKN015=



000
FTUS42 KFFC 151100
TAFCSG
TAF
KCSG 151133Z 1512/1612 07005KT 6SM BR OVC005
     FM151300 08006KT P6SM BKN008
     FM151500 11006KT P6SM OVC012
     FM151700 14006KT P6SM BKN025
     FM151900 19006KT P6SM VCSH SCT025 BKN040
      TEMPO 1521/1601 4SM -TSRA BKN025CB
     FM160300 VRB03KT P6SM VCSH SCT030 BKN050=



000
FTUS42 KFFC 151100
TAFATL
TAF
KATL 151133Z 1512/1618 08006KT 4SM BR OVC004
     FM151400 10006KT P6SM OVC007
     FM151600 13006KT P6SM BKN012
     FM151800 19006KT P6SM BKN025
     FM152000 22006KT P6SM VCSH SCT025 BKN040
      TEMPO 1521/1601 4SM -TSRA BKN025CB
     FM160600 25005KT 5SM BR VCSH BKN025
     FM161200 32007KT 6SM BR BKN015
     FM161500 35008KT P6SM SCT025 BKN040=



000
FTUS42 KFFC 151000 AAA
TAFCSG
TAF AMD
KCSG 151004Z 1510/1606 07005KT 6SM BR OVC005
     FM151300 08006KT P6SM BKN008
     FM151500 11006KT P6SM OVC012
     FM151700 14006KT P6SM BKN025
     FM151900 19006KT P6SM VCSH SCT025 BKN040 PROB30 1520/1524 4SM
      -TSRA BKN025CB
     FM160300 VRB03KT P6SM VCSH SCT030 BKN050=



000
FTUS42 KFFC 150900 AAC
TAFATL
TAF AMD
KATL 150933Z 1510/1612 09006KT 1SM BR OVC002
     FM151400 10006KT P6SM OVC006
     FM151600 13006KT P6SM BKN012
     FM151800 19006KT P6SM BKN025
     FM152000 22006KT P6SM VCSH SCT025 BKN040 PROB30 1521/1601 4SM
      -TSRA BKN025CB
     FM160300 25004KT P6SM VCSH SCT030 BKN050
     FM160800 28005KT 4SM -RA BR BKN025=



000
FTUS42 KFFC 150900 AAB
TAFATL
TAF AMD
KATL 150915Z 1509/1612 09006KT 1SM BR OVC002
     FM151400 10006KT P6SM OVC006
     FM151600 13006KT P6SM BKN012
     FM151800 19006KT P6SM BKN025
     FM152000 22006KT P6SM VCSH SCT025 BKN040 PROB30 1521/1601 4SM
      -TSRA BKN025CB
     FM160300 25004KT P6SM VCSH SCT030 BKN050
     FM160900 28005KT 4SM -RA BR BKN025=



000
FTUS42 KFFC 150800 AAA
TAFMCN
TAF AMD
KMCN 150852Z 1509/1606 07005KT 4SM BR OVC004
     FM151400 10005KT P6SM OVC008
     FM151600 13006KT P6SM BKN012
     FM151800 19006KT P6SM BKN025
     FM152000 23006KT P6SM VCSH SCT025 BKN040 PROB30 1521/1601 4SM
      -TSRA BKN025CB
     FM160300 VRB03KT P6SM VCSH SCT030 BKN050=



000
FTUS42 KFFC 150800 AAA
TAFFTY
TAF AMD
KFTY 150851Z 1509/1606 06005KT 6SM BR OVC006
     FM151000 07005KT 3SM BR OVC004
     FM151400 10006KT P6SM OVC006
     FM151600 13006KT P6SM BKN012
     FM151800 19006KT P6SM BKN025
     FM152000 22006KT P6SM VCSH SCT025 BKN040 PROB30 1521/1601 4SM
      -TSRA BKN025CB
     FM160300 25004KT P6SM VCSH SCT030 BKN050=



000
FTUS42 KFFC 150700 AAA
TAFATL
TAF AMD
KATL 150733Z 1508/1612 09006KT 2SM BR OVC003
     FM151400 10006KT P6SM OVC006
     FM151600 13006KT P6SM BKN012
     FM151800 19006KT P6SM BKN025
     FM152000 22006KT P6SM VCSH SCT025 BKN040 PROB30 1521/1601 4SM
      -TSRA BKN025CB
     FM160300 25004KT P6SM VCSH SCT030 BKN050
     FM160900 29005KT 4SM -RA BR BKN025=



000
FTUS42 KFFC 150500
TAFATL
TAF
KATL 150533Z 1506/1612 09006KT 3SM BR OVC004
     FM151400 10006KT P6SM OVC006
     FM151600 13006KT P6SM BKN012
     FM151800 19006KT P6SM BKN025
     FM152000 22006KT P6SM VCSH SCT025 BKN040 PROB30 1521/1601 4SM
      -TSRA BKN025CB
     FM160300 25004KT P6SM VCSH SCT030 BKN050
     FM160900 29005KT 4SM -RA BR BKN025=



000
FTUS42 KFFC 150500
TAFAHN
TAF
KAHN 150533Z 1506/1606 06005KT 6SM BR OVC015
     FM150900 07005KT P6SM OVC007
     FM151500 09006KT P6SM BKN015
     FM151700 12006KT P6SM BKN025
     FM151900 21006KT P6SM VCSH SCT025 BKN040 PROB30 1520/1524 4SM
      -TSRA BKN025CB
     FM160300 14003KT P6SM VCSH SCT030 BKN050=



000
FTUS42 KFFC 150500
TAFCSG
TAF
KCSG 150533Z 1506/1606 08005KT 6SM BR OVC009
     FM151500 11005KT P6SM OVC012
     FM151700 14006KT P6SM BKN025
     FM151900 19006KT P6SM VCSH SCT025 BKN040 PROB30 1520/1524 4SM
      -TSRA BKN025CB
     FM160300 VRB03KT P6SM VCSH SCT030 BKN050=



000
FTUS42 KFFC 150500
TAFFTY
TAF
KFTY 150533Z 1506/1606 06005KT 6SM BR OVC007
     FM150800 07005KT 3SM BR OVC004
     FM151400 10006KT P6SM OVC006
     FM151600 13006KT P6SM BKN012
     FM151800 19006KT P6SM BKN025
     FM152000 22006KT P6SM VCSH SCT025 BKN040 PROB30 1521/1601 4SM
      -TSRA BKN025CB
     FM160300 25004KT P6SM VCSH SCT030 BKN050=



000
FTUS42 KFFC 150500
TAFRYY
TAF
KRYY 150533Z 1506/1606 07004KT 6SM BR OVC007
     FM150800 08005KT 3SM BR OVC004
     FM151400 10006KT P6SM OVC006
     FM151600 13006KT P6SM BKN012
     FM151800 19006KT P6SM BKN025
     FM152000 22006KT P6SM VCSH SCT025 BKN040 PROB30 1521/1601 4SM
      -TSRA BKN025CB
     FM160300 25004KT P6SM VCSH SCT030 BKN050
      AMD NOT SKED TIL 151200=



000
FTUS42 KFFC 150500
TAFPDK
TAF
KPDK 150533Z 1506/1606 07004KT 6SM BR OVC007
     FM150800 08005KT 3SM BR OVC004
     FM151400 10006KT P6SM OVC006
     FM151600 13006KT P6SM BKN012
     FM151800 19006KT P6SM BKN025
     FM152000 22006KT P6SM VCSH SCT025 BKN040 PROB30 1521/1601 4SM
      -TSRA BKN025CB
     FM160300 25004KT P6SM VCSH SCT030 BKN050=



000
FTUS42 KFFC 150500
TAFMCN
TAF
KMCN 150533Z 1506/1606 07005KT 5SM BR OVC006
     FM151400 10005KT P6SM OVC009
     FM151600 13006KT P6SM BKN012
     FM151800 19006KT P6SM BKN025
     FM152000 23006KT P6SM VCSH SCT025 BKN040 PROB30 1521/1601 4SM
      -TSRA BKN025CB
     FM160300 VRB03KT P6SM VCSH SCT030 BKN050=



000
FTUS42 KFFC 150300 AAB
TAFFTY
TAF AMD
KFTY 150352Z 1504/1524 07006KT P6SM OVC008
      TEMPO 1504/1506 5SM -SHRA BR
     FM150600 09007KT 5SM BR OVC006
     FM150900 09006KT 3SM BR OVC004
     FM151500 11005KT P6SM BKN012
     FM151900 25007KT P6SM BKN030 PROB30 1520/1524 4SM -TSRA
      BKN025CB=



000
FTUS42 KFFC 150300 AAC
TAFATL
TAF AMD
KATL 150351Z 1504/1606 10006KT 4SM BR OVC004
      TEMPO 1504/1506 -SHRA BR
     FM150600 09005KT 2SM BR OVC002
     FM151400 11010KT P6SM OVC006
     FM151600 11005KT P6SM BKN012
     FM151900 25007KT P6SM BKN030 PROB30 1520/1524 4SM -TSRA
      BKN025CB=



    US Dept of Commerce
    National Oceanic and Atmospheric Administration
    National Weather Service
    1325 East West Highway
    Silver Spring, MD 20910
    Page Author: NWS Internet Services Team
Disclaimer
Information Quality
Credits
Glossary
Privacy Policy
Freedom of Information Act (FOIA)
About Us
Career Opportunities